Time;durP1;ratioP1;P1;durP2;ratioP2;P2;SDS_P1;SDS_P2;PMS_P1;PMS_P2;Temp;Humidity;BMP_temperature;BMP_pressure;BME280_temperature;BME280_humidity;BME280_pressure;Samples;Min_cycle;Max_cycle;Signal;HPM_P1;HPM_P2
2021/05/16 00:01:18;;;;;;;0.37;0.37;;;12.60;99.90;;;;;;4409250;32;20074;-78
2021/05/16 00:03:49;;;;;;;0.30;0.30;;;12.50;99.90;;;;;;4412319;32;20097;-79
2021/05/16 00:06:19;;;;;;;0.30;0.30;;;12.40;99.90;;;;;;4412580;32;20137;-79
2021/05/16 00:08:48;;;;;;;0.40;0.40;;;12.50;99.90;;;;;;4414106;32;20081;-79
2021/05/16 00:11:13;;;;;;;0.30;0.30;;;12.50;99.90;;;;;;4413334;32;20081;-79
2021/05/16 00:13:39;;;;;;;0.37;0.37;;;12.60;99.90;;;;;;4409017;32;20766;-79
2021/05/16 00:16:05;;;;;;;0.40;0.40;;;12.60;99.90;;;;;;4413650;32;20078;-79
2021/05/16 00:18:31;;;;;;;0.47;0.47;;;12.60;99.90;;;;;;4412819;32;20074;-79
2021/05/16 00:20:56;;;;;;;0.37;0.37;;;12.60;99.90;;;;;;4414877;32;20102;-78
2021/05/16 00:23:22;;;;;;;0.60;0.60;;;12.70;99.90;;;;;;4414388;32;20098;-79
2021/05/16 00:26:03;;;;;;;0.35;0.32;;;12.70;99.90;;;;;;4408660;32;20144;-79
2021/05/16 00:28:29;;;;;;;0.43;0.43;;;12.70;99.90;;;;;;4412905;32;20075;-79
2021/05/16 00:30:55;;;;;;;0.40;0.40;;;12.60;99.90;;;;;;4408606;32;20069;-79
2021/05/16 00:33:21;;;;;;;0.32;0.32;;;12.60;99.90;;;;;;4407800;32;20148;-79
2021/05/16 00:35:46;;;;;;;0.55;0.55;;;12.60;99.90;;;;;;4412801;32;20073;-79
2021/05/16 00:38:12;;;;;;;0.28;0.28;;;12.70;99.90;;;;;;4409703;32;20109;-81
2021/05/16 00:40:38;;;;;;;0.32;0.32;;;12.70;99.90;;;;;;4412668;32;20097;-79
2021/05/16 00:43:05;;;;;;;0.43;0.43;;;12.70;99.90;;;;;;4413446;32;20128;-79
2021/05/16 00:45:30;;;;;;;0.32;0.32;;;12.50;99.90;;;;;;4410782;32;20090;-79
2021/05/16 00:47:59;;;;;;;0.30;0.30;;;12.50;99.90;;;;;;4410348;32;20069;-79
2021/05/16 00:51:04;;;;;;;0.40;0.40;;;12.40;99.90;;;;;;4409492;32;20069;-79
2021/05/16 00:53:29;;;;;;;0.47;0.47;;;12.40;99.90;;;;;;4411140;32;20137;-79
2021/05/16 00:55:57;;;;;;;0.45;0.40;;;12.40;99.90;;;;;;4410249;32;20053;-79
2021/05/16 00:58:24;;;;;;;0.40;0.40;;;12.40;99.90;;;;;;4409360;32;20502;-79
2021/05/16 01:00:49;;;;;;;0.60;0.40;;;12.40;99.90;;;;;;4412344;32;20081;-83
2021/05/16 01:03:15;;;;;;;0.30;0.30;;;12.30;99.90;;;;;;4410958;32;20065;-79
2021/05/16 01:05:42;;;;;;;10.13;1.15;;;12.30;99.90;;;;;;4416800;32;20086;-79
2021/05/16 01:08:09;;;;;;;0.35;0.35;;;12.30;99.90;;;;;;4409882;32;20559;-79
2021/05/16 01:10:35;;;;;;;0.20;0.20;;;12.30;99.90;;;;;;4412167;32;20495;-79
2021/05/16 01:13:04;;;;;;;0.32;0.30;;;12.20;99.90;;;;;;4407543;32;20070;-81
2021/05/16 01:15:31;;;;;;;1.08;0.95;;;12.20;99.90;;;;;;4412387;32;20109;-79
2021/05/16 01:17:57;;;;;;;0.50;0.50;;;12.20;99.90;;;;;;4411060;32;20092;-78
2021/05/16 01:20:28;;;;;;;0.32;0.32;;;12.10;99.90;;;;;;4415170;32;20077;-79
2021/05/16 01:22:57;;;;;;;0.50;0.50;;;12.00;99.90;;;;;;4412152;32;20104;-79
2021/05/16 01:25:24;;;;;;;0.25;0.25;;;12.00;99.90;;;;;;4410470;32;20081;-79
2021/05/16 01:27:50;;;;;;;0.47;0.47;;;11.80;99.90;;;;;;4407950;32;20079;-79
2021/05/16 01:30:16;;;;;;;0.60;0.60;;;11.80;99.90;;;;;;4410714;32;20070;-79
2021/05/16 01:32:42;;;;;;;0.50;0.50;;;11.90;99.90;;;;;;4409927;32;20061;-79
2021/05/16 01:35:08;;;;;;;0.30;0.30;;;11.90;99.90;;;;;;4408657;32;20133;-79
2021/05/16 01:37:34;;;;;;;0.30;0.30;;;11.80;99.90;;;;;;4409352;32;20078;-79
2021/05/16 01:40:00;;;;;;;0.40;0.40;;;11.60;99.90;;;;;;4410178;32;20069;-78
2021/05/16 01:42:26;;;;;;;0.57;0.57;;;11.40;99.90;;;;;;4409048;32;20384;-79
2021/05/16 01:44:56;;;;;;;0.40;0.40;;;11.30;99.90;;;;;;4413514;32;20413;-79
2021/05/16 01:47:22;;;;;;;0.30;0.30;;;11.20;99.90;;;;;;4410080;32;20124;-78
2021/05/16 01:49:50;;;;;;;0.55;0.55;;;11.10;99.90;;;;;;4407675;32;20257;-79
2021/05/16 01:52:16;;;;;;;11.75;1.37;;;11.20;99.90;;;;;;4410223;32;20070;-79
2021/05/16 01:54:42;;;;;;;0.30;0.30;;;11.30;99.90;;;;;;4413574;32;20408;-79
2021/05/16 01:57:08;;;;;;;0.45;0.45;;;11.20;99.90;;;;;;4411580;32;20062;-79
2021/05/16 01:59:36;;;;;;;0.40;0.40;;;11.20;99.90;;;;;;4414513;32;20069;-78
2021/05/16 02:02:03;;;;;;;0.30;0.30;;;11.20;99.90;;;;;;4409434;32;20094;-79
2021/05/16 02:04:32;;;;;;;0.40;0.40;;;11.10;99.90;;;;;;4414405;32;20061;-79
2021/05/16 02:06:59;;;;;;;0.30;0.30;;;11.00;99.90;;;;;;4397045;32;20074;-79
2021/05/16 02:09:26;;;;;;;0.35;0.35;;;11.00;99.90;;;;;;4409628;32;20069;-79
2021/05/16 02:11:52;;;;;;;0.30;0.30;;;10.90;99.90;;;;;;4406300;32;20077;-79
2021/05/16 02:14:23;;;;;;;0.40;0.40;;;10.90;99.90;;;;;;4408808;32;20069;-79
2021/05/16 02:16:48;;;;;;;0.70;0.70;;;11.00;99.90;;;;;;4409764;32;20066;-79
2021/05/16 02:19:14;;;;;;;1.55;0.95;;;11.10;99.90;;;;;;4409229;32;20097;-79
2021/05/16 02:21:41;;;;;;;2.40;1.00;;;11.20;99.90;;;;;;4413630;32;20070;-79
2021/05/16 02:24:07;;;;;;;0.30;0.30;;;11.10;99.90;;;;;;4411991;32;20081;-79
2021/05/16 02:26:32;;;;;;;0.30;0.30;;;11.00;99.90;;;;;;4408585;32;20094;-79
2021/05/16 02:28:58;;;;;;;0.40;0.40;;;10.90;99.90;;;;;;4410458;32;20065;-78
2021/05/16 02:31:23;;;;;;;7.03;2.65;;;10.80;99.90;;;;;;4407687;32;20121;-79
2021/05/16 02:33:50;;;;;;;0.40;0.40;;;10.70;99.90;;;;;;4410037;32;20129;-79
2021/05/16 02:36:17;;;;;;;0.30;0.30;;;10.50;99.90;;;;;;4410046;32;20521;-80
2021/05/16 02:38:42;;;;;;;0.40;0.40;;;10.50;99.90;;;;;;4412171;32;20518;-79
2021/05/16 02:41:07;;;;;;;0.50;0.50;;;10.40;99.90;;;;;;4416347;32;20062;-79
2021/05/16 02:43:33;;;;;;;0.65;0.65;;;10.50;99.90;;;;;;4409599;32;20405;-78
2021/05/16 02:45:59;;;;;;;0.40;0.40;;;10.60;99.90;;;;;;4412828;32;20070;-80
2021/05/16 02:48:24;;;;;;;1.05;0.80;;;10.70;99.90;;;;;;4408293;32;20065;-79
2021/05/16 02:50:50;;;;;;;0.30;0.30;;;10.70;99.90;;;;;;4412274;32;20066;-79
2021/05/16 02:53:20;;;;;;;0.30;0.30;;;10.80;99.90;;;;;;4413784;32;20062;-79
2021/05/16 02:55:46;;;;;;;0.40;0.40;;;10.90;99.90;;;;;;4414945;32;20093;-79
2021/05/16 02:58:13;;;;;;;0.30;0.30;;;11.00;99.90;;;;;;4411145;32;20058;-78
2021/05/16 03:00:38;;;;;;;0.30;0.30;;;10.90;99.90;;;;;;4409022;32;20069;-79
2021/05/16 03:03:04;;;;;;;0.30;0.30;;;10.90;99.90;;;;;;4415500;32;20171;-78
2021/05/16 03:05:30;;;;;;;0.40;0.40;;;10.80;99.90;;;;;;4412002;32;20437;-79
2021/05/16 03:07:56;;;;;;;0.30;0.30;;;10.80;99.90;;;;;;4413251;32;20121;-79
2021/05/16 03:10:21;;;;;;;0.43;0.43;;;10.70;99.90;;;;;;4411420;32;20122;-78
2021/05/16 03:12:47;;;;;;;0.30;0.30;;;10.70;99.90;;;;;;4412587;32;20070;-79
2021/05/16 03:15:13;;;;;;;13.45;0.70;;;10.80;99.90;;;;;;4408408;32;20468;-78
2021/05/16 03:17:39;;;;;;;0.30;0.30;;;10.90;99.90;;;;;;4410251;32;20066;-79
2021/05/16 03:20:06;;;;;;;0.37;0.32;;;10.70;99.90;;;;;;4413531;32;20078;-79
2021/05/16 03:22:31;;;;;;;0.43;0.43;;;10.70;99.90;;;;;;4410539;32;20066;-79
2021/05/16 03:24:57;;;;;;;0.30;0.30;;;10.70;99.90;;;;;;4414814;32;20066;-79
2021/05/16 03:27:22;;;;;;;0.20;0.20;;;10.70;99.90;;;;;;4413963;32;20070;-79
2021/05/16 03:29:48;;;;;;;0.52;0.52;;;10.80;99.90;;;;;;4411994;32;20065;-78
2021/05/16 03:32:13;;;;;;;0.50;0.50;;;10.80;99.90;;;;;;4410193;32;20090;-78
2021/05/16 03:34:39;;;;;;;0.30;0.30;;;10.80;99.90;;;;;;4410143;32;20069;-79
2021/05/16 03:37:05;;;;;;;0.40;0.40;;;10.80;99.90;;;;;;4410872;32;20083;-79
2021/05/16 03:39:30;;;;;;;0.50;0.50;;;10.90;99.90;;;;;;4408549;32;20132;-78
2021/05/16 03:41:56;;;;;;;0.40;0.40;;;11.00;99.90;;;;;;4412494;32;20388;-79
2021/05/16 03:44:24;;;;;;;0.40;0.40;;;10.90;99.90;;;;;;4410725;32;20091;-78
2021/05/16 03:46:50;;;;;;;0.40;0.40;;;10.90;99.90;;;;;;4407120;32;20345;-78
2021/05/16 03:49:16;;;;;;;0.30;0.30;;;11.00;99.90;;;;;;4410120;32;20086;-78
2021/05/16 03:51:43;;;;;;;0.30;0.30;;;11.00;99.90;;;;;;4410778;32;20086;-79
2021/05/16 03:54:10;;;;;;;0.37;0.37;;;11.00;99.90;;;;;;4410719;32;20066;-79
2021/05/16 03:56:35;;;;;;;0.52;0.52;;;11.10;99.90;;;;;;4407690;32;20077;-78
2021/05/16 03:59:01;;;;;;;0.40;0.40;;;10.90;99.90;;;;;;4412119;32;20585;-78
2021/05/16 04:01:27;;;;;;;0.32;0.32;;;11.00;99.90;;;;;;4408379;32;20082;-78
2021/05/16 04:03:52;;;;;;;0.40;0.40;;;11.00;99.90;;;;;;4410545;32;20086;-78
2021/05/16 04:06:18;;;;;;;0.40;0.40;;;11.00;99.90;;;;;;4407797;32;20122;-77
2021/05/16 04:08:43;;;;;;;0.25;0.25;;;11.10;99.90;;;;;;4406260;32;20082;-79
2021/05/16 04:11:09;;;;;;;0.40;0.40;;;11.20;99.90;;;;;;4407474;32;20121;-79
2021/05/16 04:13:37;;;;;;;0.30;0.30;;;11.30;99.90;;;;;;4408058;32;20519;-77
2021/05/16 04:16:03;;;;;;;0.30;0.30;;;11.40;99.90;;;;;;4413338;32;20083;-77
2021/05/16 04:18:29;;;;;;;0.40;0.40;;;11.40;99.90;;;;;;4408687;32;20073;-78
2021/05/16 04:20:55;;;;;;;0.37;0.37;;;11.40;99.90;;;;;;4409563;32;20127;-77
2021/05/16 04:23:22;;;;;;;0.40;0.40;;;11.40;99.90;;;;;;4408389;32;20543;-79
2021/05/16 04:25:48;;;;;;;0.30;0.30;;;11.20;99.90;;;;;;4409400;32;20117;-79
2021/05/16 04:28:14;;;;;;;1.27;0.40;;;11.20;99.90;;;;;;4408242;32;20073;-79
2021/05/16 04:30:39;;;;;;;0.30;0.30;;;11.10;99.90;;;;;;4413315;32;20347;-79
2021/05/16 04:33:07;;;;;;;0.32;0.32;;;11.10;99.90;;;;;;4407417;32;20077;-79
2021/05/16 04:35:33;;;;;;;0.40;0.40;;;11.20;99.90;;;;;;4408887;32;20070;-80
2021/05/16 04:37:59;;;;;;;0.37;0.37;;;11.40;99.90;;;;;;4407754;32;20089;-77
2021/05/16 04:40:24;;;;;;;0.40;0.40;;;11.40;99.90;;;;;;4410262;32;20471;-78
2021/05/16 04:42:50;;;;;;;0.28;0.28;;;11.40;99.90;;;;;;4406270;32;20082;-78
2021/05/16 04:45:16;;;;;;;0.50;0.50;;;11.60;99.90;;;;;;4407464;32;20062;-78
2021/05/16 04:47:41;;;;;;;0.35;0.35;;;11.80;99.90;;;;;;4406749;32;20094;-78
2021/05/16 04:50:07;;;;;;;0.30;0.30;;;11.80;99.90;;;;;;4405863;32;20133;-78
2021/05/16 04:52:33;;;;;;;0.40;0.40;;;11.80;99.90;;;;;;4408245;32;20121;-78
2021/05/16 04:54:58;;;;;;;0.40;0.40;;;11.80;99.90;;;;;;4409243;32;20082;-77
2021/05/16 04:57:24;;;;;;;0.40;0.40;;;11.80;99.90;;;;;;4408519;32;20089;-78
2021/05/16 04:59:52;;;;;;;0.30;0.30;;;11.90;99.90;;;;;;4408115;32;20073;-78
2021/05/16 05:02:17;;;;;;;0.37;0.37;;;12.00;99.90;;;;;;4407166;32;20070;-78
2021/05/16 05:04:43;;;;;;;0.30;0.30;;;12.10;99.90;;;;;;4408056;32;20143;-78
2021/05/16 05:07:09;;;;;;;0.40;0.40;;;12.30;99.90;;;;;;4408040;32;20130;-78
2021/05/16 05:09:34;;;;;;;0.50;0.50;;;12.30;99.90;;;;;;4409662;32;20511;-78
2021/05/16 05:12:00;;;;;;;0.30;0.30;;;12.30;99.90;;;;;;4403984;32;20478;-78
2021/05/16 05:14:26;;;;;;;0.40;0.40;;;12.30;99.90;;;;;;4408717;32;20082;-78
2021/05/16 05:16:52;;;;;;;0.30;0.30;;;12.30;99.90;;;;;;4406948;32;20065;-78
2021/05/16 05:19:17;;;;;;;0.40;0.40;;;12.30;99.90;;;;;;4408752;32;20125;-77
2021/05/16 05:21:43;;;;;;;0.47;0.47;;;12.30;99.90;;;;;;4407481;32;20078;-78
2021/05/16 05:24:09;;;;;;;0.95;0.40;;;12.20;99.90;;;;;;4404585;32;20089;-78
2021/05/16 05:26:35;;;;;;;0.30;0.30;;;12.20;99.90;;;;;;4409127;32;20068;-78
2021/05/16 05:29:01;;;;;;;0.40;0.40;;;12.00;99.90;;;;;;4406961;32;20229;-77
2021/05/16 05:31:27;;;;;;;0.37;0.37;;;12.10;99.90;;;;;;4407794;32;20066;-78
2021/05/16 05:33:52;;;;;;;2.83;0.50;;;12.10;99.90;;;;;;4405309;32;20069;-78
2021/05/16 05:36:18;;;;;;;0.70;0.45;;;12.10;99.90;;;;;;4405214;32;20065;-78
2021/05/16 05:38:43;;;;;;;0.40;0.40;;;12.10;99.90;;;;;;4405835;32;20086;-78
2021/05/16 05:41:09;;;;;;;0.40;0.40;;;12.20;99.90;;;;;;4405597;32;20082;-77
2021/05/16 05:43:35;;;;;;;0.55;0.40;;;12.30;99.90;;;;;;4409284;32;20082;-77
2021/05/16 05:46:00;;;;;;;0.30;0.30;;;12.40;99.90;;;;;;4405919;32;20070;-77
2021/05/16 05:48:26;;;;;;;0.30;0.30;;;12.50;99.90;;;;;;4409792;32;20073;-76
2021/05/16 05:50:52;;;;;;;0.37;0.37;;;12.60;99.90;;;;;;4406490;32;20070;-77
2021/05/16 05:53:18;;;;;;;0.30;0.30;;;12.80;99.90;;;;;;4407333;32;20058;-78
2021/05/16 05:55:43;;;;;;;0.20;0.20;;;12.90;99.90;;;;;;4409383;32;20082;-82
2021/05/16 05:58:09;;;;;;;0.30;0.30;;;12.80;99.90;;;;;;4405185;32;20566;-77
2021/05/16 06:00:34;;;;;;;3.65;1.17;;;12.90;99.90;;;;;;4408822;32;20086;-78
2021/05/16 06:03:00;;;;;;;0.50;0.50;;;13.00;99.90;;;;;;4408926;32;20116;-77
2021/05/16 06:05:27;;;;;;;0.40;0.40;;;13.10;99.90;;;;;;4405269;32;20116;-77
2021/05/16 06:07:53;;;;;;;0.30;0.30;;;13.20;99.90;;;;;;4406575;32;20136;-78
2021/05/16 06:10:19;;;;;;;0.40;0.40;;;13.20;99.90;;;;;;4407800;32;20086;-77
2021/05/16 06:12:45;;;;;;;0.40;0.40;;;13.20;99.90;;;;;;4404569;32;20061;-77
2021/05/16 06:15:11;;;;;;;0.20;0.20;;;13.30;99.90;;;;;;4407117;32;20077;-78
2021/05/16 06:17:37;;;;;;;0.37;0.37;;;13.20;99.90;;;;;;4406708;32;20162;-78
2021/05/16 06:20:04;;;;;;;0.30;0.30;;;13.20;99.90;;;;;;4405918;32;20082;-78
2021/05/16 06:22:30;;;;;;;26.20;0.50;;;13.20;99.90;;;;;;4404685;32;20083;-77
2021/05/16 06:24:56;;;;;;;0.30;0.30;;;13.20;99.90;;;;;;4406256;32;20065;-78
2021/05/16 06:27:22;;;;;;;0.37;0.37;;;13.10;99.90;;;;;;4404788;32;20079;-77
2021/05/16 06:29:48;;;;;;;0.30;0.30;;;13.20;99.90;;;;;;4405801;32;20070;-78
2021/05/16 06:32:13;;;;;;;0.30;0.30;;;13.30;99.90;;;;;;4407136;32;20079;-77
2021/05/16 06:34:39;;;;;;;4.30;0.47;;;13.30;99.90;;;;;;4404135;32;20514;-76
2021/05/16 06:37:05;;;;;;;0.55;0.50;;;13.30;99.90;;;;;;4404946;32;20156;-78
2021/05/16 06:39:31;;;;;;;0.20;0.20;;;13.30;99.90;;;;;;4403803;32;20066;-76
2021/05/16 06:41:57;;;;;;;0.43;0.43;;;13.30;99.90;;;;;;4407350;32;20066;-78
2021/05/16 06:44:24;;;;;;;0.30;0.30;;;13.10;99.90;;;;;;4404210;32;20065;-76
2021/05/16 06:46:50;;;;;;;0.30;0.30;;;13.00;99.90;;;;;;4406989;32;20388;-77
2021/05/16 06:49:16;;;;;;;0.73;0.50;;;12.90;99.90;;;;;;4408009;32;20099;-77
2021/05/16 06:51:42;;;;;;;0.28;0.28;;;12.90;99.90;;;;;;4405508;32;20082;-77
2021/05/16 06:54:07;;;;;;;0.47;0.47;;;12.80;99.90;;;;;;4407983;32;20069;-78
2021/05/16 06:56:34;;;;;;;0.30;0.30;;;12.70;99.90;;;;;;4409769;32;20190;-79
2021/05/16 06:59:00;;;;;;;0.30;0.30;;;12.60;99.90;;;;;;4407426;32;20075;-79
2021/05/16 07:01:27;;;;;;;0.32;0.32;;;12.50;99.90;;;;;;4412826;32;20082;-80
2021/05/16 07:03:53;;;;;;;0.30;0.30;;;12.50;99.90;;;;;;4407301;32;20418;-80
2021/05/16 07:06:18;;;;;;;0.30;0.30;;;12.60;99.90;;;;;;4405245;32;20087;-77
2021/05/16 07:08:45;;;;;;;0.20;0.20;;;12.60;99.90;;;;;;4404811;32;20074;-77
2021/05/16 07:11:11;;;;;;;0.37;0.37;;;12.60;99.90;;;;;;4406086;32;20075;-77
2021/05/16 07:13:37;;;;;;;0.25;0.25;;;12.70;99.90;;;;;;4408301;32;20430;-77
2021/05/16 07:16:02;;;;;;;0.50;0.50;;;12.70;99.90;;;;;;4411002;32;20537;-78
2021/05/16 07:18:28;;;;;;;0.30;0.30;;;12.60;99.90;;;;;;4407507;32;20070;-78
2021/05/16 07:20:53;;;;;;;0.50;0.50;;;12.80;99.90;;;;;;4408251;32;20396;-78
2021/05/16 07:23:20;;;;;;;0.30;0.30;;;12.90;99.90;;;;;;4408153;32;20470;-78
2021/05/16 07:25:46;;;;;;;0.30;0.30;;;12.90;99.90;;;;;;4406031;32;20098;-77
2021/05/16 07:28:11;;;;;;;0.40;0.40;;;12.70;99.90;;;;;;4405205;32;20059;-78
2021/05/16 07:30:37;;;;;;;0.30;0.30;;;12.80;99.90;;;;;;4408369;32;20397;-77
2021/05/16 07:33:03;;;;;;;0.30;0.30;;;12.80;99.90;;;;;;4404092;32;20095;-77
2021/05/16 07:35:29;;;;;;;0.40;0.40;;;13.00;99.90;;;;;;4409707;32;20090;-77
2021/05/16 07:37:54;;;;;;;0.30;0.30;;;13.10;99.90;;;;;;4406554;32;20070;-78
2021/05/16 07:40:20;;;;;;;0.60;0.60;;;13.20;99.90;;;;;;4405715;32;20479;-76
2021/05/16 07:42:46;;;;;;;0.30;0.30;;;13.20;99.90;;;;;;4407764;32;20074;-78
2021/05/16 07:45:12;;;;;;;0.32;0.32;;;13.20;99.90;;;;;;4411387;32;20182;-77
2021/05/16 07:47:39;;;;;;;0.35;0.35;;;12.90;99.90;;;;;;4404252;32;20606;-79
2021/05/16 07:50:07;;;;;;;0.30;0.30;;;12.80;99.90;;;;;;4412255;32;20070;-79
2021/05/16 07:52:32;;;;;;;0.30;0.30;;;12.80;99.90;;;;;;4415980;32;20125;-82
2021/05/16 07:54:58;;;;;;;0.30;0.30;;;12.90;99.90;;;;;;4412764;32;20078;-78
2021/05/16 07:57:24;;;;;;;0.75;0.40;;;13.10;99.90;;;;;;4417228;32;20086;-80
2021/05/16 07:59:50;;;;;;;0.50;0.50;;;13.20;99.90;;;;;;4410615;32;20421;-79
2021/05/16 08:02:17;;;;;;;0.30;0.30;;;13.20;99.90;;;;;;4412000;32;20070;-79
2021/05/16 08:04:43;;;;;;;0.30;0.30;;;13.30;99.90;;;;;;4405283;32;20074;-79
2021/05/16 08:07:09;;;;;;;0.88;0.50;;;13.30;99.90;;;;;;4409415;32;20066;-78
2021/05/16 08:09:35;;;;;;;0.25;0.25;;;13.30;99.90;;;;;;4412819;32;20295;-79
2021/05/16 08:12:00;;;;;;;0.85;0.75;;;13.40;99.90;;;;;;4414317;32;20066;-77
2021/05/16 08:14:28;;;;;;;0.20;0.20;;;13.40;99.90;;;;;;4407875;32;20066;-79
2021/05/16 08:17:03;;;;;;;0.30;0.30;;;13.40;99.90;;;;;;4414288;32;20424;-80
2021/05/16 08:19:28;;;;;;;0.25;0.25;;;13.30;99.90;;;;;;4418218;32;20091;-83
2021/05/16 08:22:10;;;;;;;0.30;0.30;;;13.40;99.90;;;;;;4410869;32;20074;-80
2021/05/16 08:25:14;;;;;;;0.25;0.25;;;13.40;99.90;;;;;;4409659;32;20091;-79
2021/05/16 08:27:40;;;;;;;0.20;0.20;;;13.30;99.90;;;;;;4384011;32;20093;-79
2021/05/16 08:30:15;;;;;;;0.20;0.20;;;13.30;99.90;;;;;;4410510;32;20137;-78
2021/05/16 08:32:41;;;;;;;0.30;0.30;;;13.50;99.90;;;;;;4414765;32;20473;-79
2021/05/16 08:35:07;;;;;;;0.28;0.28;;;13.50;99.90;;;;;;4411936;32;20113;-77
2021/05/16 08:37:32;;;;;;;0.50;0.50;;;13.60;99.90;;;;;;4409180;32;20058;-79
2021/05/16 08:39:58;;;;;;;0.30;0.30;;;13.60;99.90;;;;;;4412976;32;20129;-79
2021/05/16 08:42:23;;;;;;;0.40;0.40;;;13.60;99.90;;;;;;4411215;32;20066;-78
2021/05/16 08:44:49;;;;;;;0.25;0.25;;;13.40;99.90;;;;;;4409386;32;20436;-77
2021/05/16 08:47:38;;;;;;;0.30;0.30;;;13.60;99.90;;;;;;4410764;32;20123;-79
2021/05/16 08:50:15;;;;;;;0.30;0.30;;;13.50;99.90;;;;;;4414431;32;20074;-78
2021/05/16 08:52:41;;;;;;;0.30;0.30;;;13.50;99.90;;;;;;4407709;32;20074;-79
2021/05/16 08:55:08;;;;;;;0.30;0.30;;;13.30;99.90;;;;;;4413681;32;20502;-78
2021/05/16 08:57:34;;;;;;;0.30;0.30;;;13.30;99.90;;;;;;4415431;32;20090;-79
2021/05/16 09:00:57;;;;;;;0.30;0.30;;;13.40;99.90;;;;;;4415940;32;20087;-79
2021/05/16 09:03:58;;;;;;;0.30;0.30;;;13.30;99.90;;;;;;4397087;32;20073;-79
2021/05/16 09:06:37;;;;;;;0.30;0.30;;;13.60;99.90;;;;;;4411811;32;20125;-79
2021/05/16 09:09:45;;;;;;;0.30;0.30;;;13.70;99.90;;;;;;4412640;32;20459;-79
2021/05/16 09:12:14;;;;;;;0.40;0.40;;;13.90;99.90;;;;;;4395813;32;20503;-79
2021/05/16 09:14:59;;;;;;;;;;;;;;;;;;;;;
2021/05/16 09:21:33;;;;;;;0.30;0.30;;;14.40;99.90;;;;;;4378601;32;20114;-79
2021/05/16 09:24:12;;;;;;;0.30;0.30;;;14.70;99.90;;;;;;4401838;32;20054;-79
2021/05/16 09:26:50;;;;;;;0.47;0.47;;;15.00;99.90;;;;;;4413307;32;20081;-79
2021/05/16 09:29:39;;;;;;;0.30;0.30;;;15.10;99.90;;;;;;4410194;32;20066;-79
2021/05/16 09:32:05;;;;;;;0.32;0.32;;;15.40;99.90;;;;;;4393092;32;20067;-80
2021/05/16 09:34:31;;;;;;;0.20;0.20;;;15.50;99.90;;;;;;4411222;32;20098;-80
2021/05/16 09:36:57;;;;;;;0.35;0.35;;;15.50;99.90;;;;;;4411887;32;20573;-79
2021/05/16 09:39:32;;;;;;;3.33;0.40;;;15.40;99.90;;;;;;4410049;32;96322;-79
2021/05/16 09:42:23;;;;;;;0.37;0.37;;;15.30;99.90;;;;;;4411868;32;20121;-79
2021/05/16 09:45:52;;;;;;;0.30;0.30;;;15.10;99.90;;;;;;4416128;32;20066;-79
2021/05/16 09:48:28;;;;;;;0.40;0.40;;;14.80;99.90;;;;;;4401181;32;20086;-77
2021/05/16 09:51:21;;;;;;;0.30;0.30;;;14.40;99.90;;;;;;4406005;32;20061;-78
2021/05/16 09:53:51;;;;;;;4.37;0.43;;;14.20;99.90;;;;;;4395257;32;20112;-77
2021/05/16 09:56:20;;;;;;;0.37;0.37;;;14.20;99.90;;;;;;4406049;32;20062;-78
2021/05/16 09:58:49;;;;;;;0.32;0.32;;;14.10;99.90;;;;;;4407476;32;20059;-78
2021/05/16 10:01:15;;;;;;;0.35;0.35;;;13.90;99.90;;;;;;4406062;32;20104;-78
2021/05/16 10:03:41;;;;;;;0.40;0.40;;;14.00;99.90;;;;;;4405996;32;20082;-78
2021/05/16 10:06:07;;;;;;;0.20;0.20;;;14.10;99.90;;;;;;4405675;32;20058;-77
2021/05/16 10:08:33;;;;;;;0.28;0.28;;;14.00;99.90;;;;;;4404555;32;20083;-78
2021/05/16 10:10:59;;;;;;;0.22;0.22;;;14.20;99.90;;;;;;4409168;32;20086;-77
2021/05/16 10:13:30;;;;;;;0.20;0.20;;;14.40;99.90;;;;;;4405734;32;20149;-78
2021/05/16 10:15:57;;;;;;;0.40;0.40;;;14.60;99.90;;;;;;4405868;32;20402;-79
2021/05/16 10:18:26;;;;;;;0.35;0.35;;;15.10;99.90;;;;;;4408489;32;20066;-78
2021/05/16 10:20:53;;;;;;;0.30;0.30;;;15.50;99.90;;;;;;4411993;32;20054;-79
2021/05/16 10:23:36;;;;;;;0.30;0.30;;;16.00;99.90;;;;;;4415255;32;20659;-80
2021/05/16 10:26:23;;;;;;;0.30;0.30;;;16.10;99.90;;;;;;4410188;32;20531;-79
2021/05/16 10:28:56;;;;;;;0.40;0.40;;;15.90;99.90;;;;;;4412824;32;20074;-81
2021/05/16 10:31:57;;;;;;;0.37;0.37;;;15.80;99.90;;;;;;4415637;32;20099;-80
2021/05/16 10:34:29;;;;;;;0.60;0.60;;;16.00;99.90;;;;;;4410875;32;20095;-80
2021/05/16 10:36:55;;;;;;;1.12;0.62;;;16.20;99.90;;;;;;4388829;32;20077;-79
2021/05/16 10:39:42;;;;;;;0.30;0.30;;;16.60;99.90;;;;;;4413797;32;20085;-79
2021/05/16 10:42:13;;;;;;;0.40;0.40;;;16.90;99.90;;;;;;4406157;32;20066;-80
2021/05/16 10:44:55;;;;;;;0.37;0.37;;;16.60;99.90;;;;;;4411402;32;20119;-80
2021/05/16 10:47:46;;;;;;;0.30;0.30;;;16.90;99.90;;;;;;4411328;32;20094;-79
2021/05/16 10:50:30;;;;;;;0.30;0.30;;;17.40;99.90;;;;;;4408116;32;20062;-81
2021/05/16 10:52:57;;;;;;;0.22;0.22;;;17.70;99.90;;;;;;4406122;32;20070;-78
2021/05/16 10:55:28;;;;;;;0.40;0.40;;;17.80;99.90;;;;;;4417617;32;20082;-80
2021/05/16 10:58:04;;;;;;;0.50;0.50;;;18.10;99.90;;;;;;4422248;32;20479;-80
2021/05/16 11:00:40;;;;;;;0.30;0.30;;;18.30;99.90;;;;;;4416152;32;20058;-80
2021/05/16 11:03:15;;;;;;;0.20;0.20;;;18.20;99.90;;;;;;4418154;32;20067;-80
2021/05/16 11:06:52;;;;;;;0.47;0.47;;;18.10;99.90;;;;;;4422896;32;20065;-80
2021/05/16 11:09:44;;;;;;;;;;;;;;;;;;;;;
2021/05/16 11:15:54;;;;;;;0.20;0.20;;;17.80;99.90;;;;;;4406109;32;20086;-80
2021/05/16 11:25:23;;;;;;;0.28;0.28;;;18.10;99.90;;;;;;4360241;32;20088;-80
2021/05/16 11:28:59;;;;;;;0.30;0.30;;;18.50;99.90;;;;;;4419293;32;20082;-80
2021/05/16 11:32:32;;;;;;;;;;;;;;;;;;;;;
2021/05/16 11:35:49;;;;;;;0.20;0.20;;;18.70;99.90;;;;;;4398689;32;20074;-82
2021/05/16 11:42:45;;;;;;;;;;;;;;;;;;;;;
2021/05/16 11:52:20;;;;;;;0.30;0.30;;;21.20;95.80;;;;;;4366096;32;20119;-79
2021/05/16 12:02:57;;;;;;;0.10;0.10;;;20.70;94.30;;;;;;4386136;32;20131;-81
2021/05/16 12:05:30;;;;;;;0.20;0.20;;;20.00;95.80;;;;;;4370578;32;20078;-80
2021/05/16 12:08:33;;;;;;;0.10;0.10;;;20.50;95.20;;;;;;4368917;32;20063;-80
2021/05/16 12:11:49;;;;;;;0.20;0.20;;;21.10;94.30;;;;;;4416593;32;20066;-80
2021/05/16 12:29:47;;;;;;;0.20;0.20;;;20.20;94.80;;;;;;4290145;33;20118;-79
2021/05/16 12:32:27;;;;;;;10.13;0.35;;;19.10;95.20;;;;;;4311923;32;20584;-79
2021/05/16 12:41:48;;;;;;;0.32;0.32;;;17.30;99.90;;;;;;4365790;32;20121;-80
2021/05/16 12:44:49;;;;;;;0.20;0.20;;;16.60;99.90;;;;;;4363984;32;20062;-80
2021/05/16 12:47:22;;;;;;;0.25;0.25;;;16.40;99.90;;;;;;4363731;32;20090;-80
2021/05/16 12:49:48;;;;;;;0.22;0.22;;;15.90;99.90;;;;;;4369375;32;20252;-79
2021/05/16 12:52:23;;;;;;;0.30;0.30;;;15.60;99.90;;;;;;4387665;32;20058;-78
2021/05/16 12:54:49;;;;;;;1.45;0.60;;;15.40;99.90;;;;;;4411600;32;20523;-80
2021/05/16 12:57:27;;;;;;;0.40;0.40;;;15.10;99.90;;;;;;4414384;32;20121;-80
2021/05/16 12:59:54;;;;;;;3.20;0.30;;;15.10;99.90;;;;;;4412264;32;20054;-80
2021/05/16 13:02:19;;;;;;;0.25;0.25;;;14.90;99.90;;;;;;4414917;32;20128;-79
2021/05/16 13:04:48;;;;;;;0.28;0.28;;;15.10;99.90;;;;;;4415130;32;20050;-80
2021/05/16 13:07:39;;;;;;;0.30;0.30;;;15.70;99.90;;;;;;4409059;32;20125;-79
2021/05/16 13:10:42;;;;;;;0.37;0.37;;;16.00;99.90;;;;;;4409334;32;20085;-79
2021/05/16 13:13:13;;;;;;;0.30;0.30;;;16.20;99.90;;;;;;4410292;32;20440;-79
2021/05/16 13:15:42;;;;;;;0.25;0.25;;;16.30;99.90;;;;;;4411217;32;20069;-80
2021/05/16 13:18:29;;;;;;;0.60;0.60;;;16.40;99.90;;;;;;4411910;32;20086;-79
2021/05/16 13:20:57;;;;;;;0.30;0.30;;;17.10;99.90;;;;;;4397867;32;20070;-80
2021/05/16 13:23:29;;;;;;;0.20;0.20;;;18.40;99.90;;;;;;4418743;32;20058;-79
2021/05/16 13:25:56;;;;;;;0.20;0.20;;;19.60;99.90;;;;;;4418522;32;20049;-80
2021/05/16 13:28:28;;;;;;;0.10;0.10;;;20.80;99.90;;;;;;4420644;32;20054;-80
2021/05/16 13:30:57;;;;;;;1.17;0.50;;;22.00;99.90;;;;;;4416583;32;20094;-80
2021/05/16 13:33:33;;;;;;;0.00;0.00;;;22.90;99.90;;;;;;4420653;32;20519;-80
2021/05/16 13:36:02;;;;;;;0.05;0.05;;;23.50;99.90;;;;;;4417565;32;20070;-80
2021/05/16 13:38:33;;;;;;;0.00;0.00;;;23.60;93.70;;;;;;4414073;32;20074;-80
2021/05/16 13:41:13;;;;;;;;;;;;;;;;;;;;;
2021/05/16 13:44:51;;;;;;;1.08;0.22;;;24.50;93.50;;;;;;4372530;32;20097;-80
2021/05/16 13:47:17;;;;;;;0.40;0.35;;;24.70;92.30;;;;;;4379247;32;20078;-80
2021/05/16 13:49:48;;;;;;;0.00;0.00;;;25.60;88.80;;;;;;4379503;32;20092;-80
2021/05/16 13:56:36;;;;;;;0.20;0.20;;;25.10;92.10;;;;;;4418424;32;20094;-80
2021/05/16 14:06:29;;;;;;;3.30;0.25;;;20.80;94.40;;;;;;4412012;32;20083;-79
2021/05/16 14:16:45;;;;;;;;;;;;;;;;;;;;;
2021/05/16 14:20:01;;;;;;;0.20;0.20;;;19.20;93.50;;;;;;4239630;33;20097;-79
2021/05/16 14:30:31;;;;;;;0.20;0.20;;;22.00;91.50;;;;;;4346987;32;20094;-82
2021/05/16 14:32:57;;;;;;;0.35;0.30;;;23.70;82.70;;;;;;4359242;32;20466;-82
2021/05/16 14:35:23;;;;;;;0.10;0.10;;;24.30;78.50;;;;;;4414951;32;20069;-82